Time;durP1;ratioP1;P1;durP2;ratioP2;P2;SDS_P1;SDS_P2;PMS_P1;PMS_P2;Temp;Humidity;BMP_temperature;BMP_pressure;BME280_temperature;BME280_humidity;BME280_pressure;Samples;Min_cycle;Max_cycle;Signal;HPM_P1;HPM_P2
2022/09/22 00:00:15;;;;;;;18.70;15.85;;;;;;;7.59;88.91;102300.72;6058525;23;20041;-84
2022/09/22 00:02:41;;;;;;;17.02;15.52;;;;;;;7.58;89.18;102291.03;6059387;23;20488;-84
2022/09/22 00:05:07;;;;;;;17.60;15.80;;;;;;;7.58;89.14;102298.09;6063856;23;20097;-85
2022/09/22 00:07:32;;;;;;;16.80;15.15;;;;;;;7.52;89.02;102293.75;6089133;23;20010;-85
2022/09/22 00:09:57;;;;;;;17.60;15.75;;;;;;;7.50;88.97;102279.66;6088120;23;20002;-83
2022/09/22 00:12:22;;;;;;;17.58;15.77;;;;;;;7.48;89.04;102287.66;6087504;23;20057;-85
2022/09/22 00:14:48;;;;;;;17.08;15.48;;;;;;;7.47;89.02;102293.81;6089891;23;20512;-84
2022/09/22 00:17:13;;;;;;;16.75;15.25;;;;;;;7.44;89.32;102291.25;6088472;23;20026;-83
2022/09/22 00:19:39;;;;;;;16.45;14.93;;;;;;;7.41;89.00;102291.28;6088979;23;20009;-83
2022/09/22 00:22:05;;;;;;;18.33;15.93;;;;;;;7.35;89.70;102278.09;6088024;23;20417;-84
2022/09/22 00:24:30;;;;;;;18.42;16.52;;;;;;;7.34;89.96;102281.66;6089142;23;20010;-84
2022/09/22 00:26:57;;;;;;;17.67;15.88;;;;;;;7.32;90.08;102286.13;6088359;23;20010;-84
2022/09/22 00:29:27;;;;;;;17.83;15.95;;;;;;;7.29;90.38;102285.28;6062291;23;20014;-85
2022/09/22 00:31:53;;;;;;;18.10;16.20;;;;;;;7.28;90.57;102288.84;6087862;23;20010;-84
2022/09/22 00:34:21;;;;;;;18.30;16.45;;;;;;;7.27;90.77;102285.28;6089123;23;20095;-84
2022/09/22 00:36:47;;;;;;;18.35;16.48;;;;;;;7.27;90.34;102287.94;6088800;23;20061;-84
2022/09/22 00:39:14;;;;;;;17.38;15.75;;;;;;;7.20;90.42;102283.63;6087694;23;20186;-84
2022/09/22 00:41:43;;;;;;;18.13;14.95;;;;;;;7.23;90.68;102286.22;6088563;23;20085;-83
2022/09/22 00:44:30;;;;;;;17.45;15.63;;;;;;;7.22;90.43;102284.47;6088006;23;20433;-84
2022/09/22 00:47:01;;;;;;;16.88;15.05;;;;;;;7.17;90.47;102283.69;6087547;23;20463;-84
2022/09/22 00:49:32;;;;;;;17.08;15.38;;;;;;;7.12;90.19;102269.63;6087655;23;20013;-84
2022/09/22 00:51:59;;;;;;;16.40;14.88;;;;;;;7.09;90.83;102278.47;6087694;23;20006;-85
2022/09/22 00:54:25;;;;;;;16.63;14.95;;;;;;;7.07;90.63;102277.63;6089490;23;19999;-83
2022/09/22 00:57:06;;;;;;;16.02;14.52;;;;;;;7.06;90.92;102272.34;6090105;23;20033;-85
2022/09/22 00:59:32;;;;;;;16.42;14.82;;;;;;;7.05;91.31;102273.25;6088588;23;20234;-84
2022/09/22 01:01:58;;;;;;;15.93;14.30;;;;;;;6.97;91.32;102271.56;6061325;23;20010;-85
2022/09/22 01:04:23;;;;;;;17.95;16.02;;;;;;;6.95;91.41;102262.78;6089614;23;20314;-84
2022/09/22 01:06:49;;;;;;;17.27;15.48;;;;;;;6.94;91.34;102265.47;6088729;23;20085;-86
2022/09/22 01:09:15;;;;;;;19.08;16.15;;;;;;;6.88;90.99;102258.47;6088392;23;20006;-84
2022/09/22 01:11:41;;;;;;;19.10;17.23;;;;;;;6.83;90.92;102257.66;6088481;23;20010;-84
2022/09/22 01:14:29;;;;;;;19.38;17.38;;;;;;;6.84;91.85;102254.09;6062741;23;20277;-85
2022/09/22 01:17:28;;;;;;;18.88;17.00;;;;;;;6.83;91.26;102254.13;6088075;23;20472;-85
2022/09/22 01:20:02;;;;;;;18.00;16.08;;;;;;;6.79;91.29;102247.13;6088905;23;20425;-85
2022/09/22 01:23:04;;;;;;;18.10;16.50;;;;;;;6.78;91.35;102246.25;6088778;23;20014;-85
2022/09/22 01:25:55;;;;;;;19.63;17.35;;;;;;;6.76;91.65;102240.09;6091156;23;20170;-84
2022/09/22 01:28:30;;;;;;;19.05;17.15;;;;;;;6.68;91.65;102237.53;6089950;23;20006;-85
2022/09/22 01:31:04;;;;;;;17.90;16.20;;;;;;;6.67;91.74;102242.84;6064144;23;20014;-85
2022/09/22 01:33:45;;;;;;;18.67;16.77;;;;;;;6.62;91.62;102249.97;6089886;23;20136;-84
2022/09/22 01:36:26;;;;;;;18.27;16.58;;;;;;;6.57;91.93;102233.28;6090471;23;20107;-85
2022/09/22 01:39:03;;;;;;;19.60;17.60;;;;;;;6.53;92.15;102237.75;6091188;23;20073;-84
2022/09/22 01:41:41;;;;;;;19.30;17.38;;;;;;;6.50;92.03;102245.69;6089815;23;20003;-85
2022/09/22 01:44:13;;;;;;;20.08;18.17;;;;;;;6.44;92.44;102238.72;6089772;23;20002;-84
2022/09/22 01:46:48;;;;;;;19.23;17.23;;;;;;;6.40;92.24;102239.66;6089835;23;20010;-85
2022/09/22 01:49:16;;;;;;;19.55;17.58;;;;;;;6.37;91.92;102237.03;6088277;23;20254;-85
2022/09/22 01:51:50;;;;;;;19.35;17.55;;;;;;;6.35;92.49;102238.81;6063377;23;20014;-85
2022/09/22 01:54:22;;;;;;;19.88;17.92;;;;;;;6.31;92.32;102234.47;6091522;23;20095;-84
2022/09/22 01:56:54;;;;;;;19.10;17.23;;;;;;;6.25;92.28;102229.22;6092725;23;20010;-85
2022/09/22 01:59:25;;;;;;;18.58;16.73;;;;;;;6.24;91.88;102220.44;6091780;23;20065;-84
2022/09/22 02:01:56;;;;;;;19.80;17.95;;;;;;;6.21;92.16;102230.16;6098364;23;20006;-85
2022/09/22 02:04:46;;;;;;;19.48;17.48;;;;;;;6.20;92.08;102223.13;6112702;23;20062;-85
2022/09/22 02:07:19;;;;;;;19.42;17.58;;;;;;;6.15;92.46;102220.53;6113656;23;20018;-85
2022/09/22 02:09:48;;;;;;;19.50;17.52;;;;;;;6.15;92.34;102217.91;6114593;23;20018;-85
2022/09/22 02:12:17;;;;;;;18.95;16.95;;;;;;;6.12;92.23;102214.41;6113232;23;20038;-85
2022/09/22 02:14:43;;;;;;;17.35;15.73;;;;;;;6.10;92.36;102218.81;6112788;23;20114;-84
2022/09/22 02:17:08;;;;;;;19.05;16.83;;;;;;;6.05;92.83;102213.56;6096547;23;20002;-85
2022/09/22 02:19:39;;;;;;;17.92;16.13;;;;;;;6.06;92.92;102209.16;6095538;23;20080;-85
2022/09/22 02:22:07;;;;;;;17.83;16.13;;;;;;;6.05;93.46;102208.28;6098006;23;20009;-85
2022/09/22 02:24:39;;;;;;;18.80;17.05;;;;;;;6.05;93.26;102208.28;6093569;23;20006;-85
2022/09/22 02:27:10;;;;;;;21.13;17.53;;;;;;;6.00;93.59;102212.75;6068323;23;20017;-85
2022/09/22 02:29:39;;;;;;;19.65;17.00;;;;;;;5.98;93.21;102204.84;6095564;23;20082;-85
2022/09/22 02:32:08;;;;;;;19.67;17.75;;;;;;;5.96;93.16;102206.63;6094158;23;20073;-85
2022/09/22 02:34:33;;;;;;;19.10;17.10;;;;;;;5.95;93.59;102199.59;6094973;23;20003;-86
2022/09/22 02:37:08;;;;;;;19.25;17.45;;;;;;;5.94;93.37;102196.97;6067683;23;20013;-85
2022/09/22 02:39:42;;;;;;;18.67;16.73;;;;;;;5.93;93.72;102203.13;6093278;23;20085;-85
2022/09/22 02:42:32;;;;;;;17.00;15.50;;;;;;;5.92;93.41;102196.97;6064973;23;20307;-85
2022/09/22 02:45:20;;;;;;;17.92;16.30;;;;;;;5.91;93.31;102191.69;6091436;23;20132;-85
2022/09/22 02:47:51;;;;;;;18.48;16.58;;;;;;;5.81;93.42;102185.63;6091425;23;20134;-86
2022/09/22 02:50:21;;;;;;;19.17;17.38;;;;;;;5.83;93.91;102191.75;6089139;23;20010;-85
2022/09/22 02:52:50;;;;;;;17.67;15.98;;;;;;;5.81;94.04;102182.06;6091384;23;20002;-85
2022/09/22 02:55:16;;;;;;;18.15;16.25;;;;;;;5.82;94.11;102191.78;6091796;23;20101;-85
2022/09/22 02:57:42;;;;;;;17.08;15.48;;;;;;;5.80;93.41;102189.13;6090939;23;20574;-85
2022/09/22 03:00:09;;;;;;;17.13;15.32;;;;;;;5.77;93.85;102183.91;6090423;23;20441;-85
2022/09/22 03:02:34;;;;;;;15.95;14.45;;;;;;;5.77;94.05;102180.34;6091025;23;20010;-85
2022/09/22 03:05:00;;;;;;;16.20;14.63;;;;;;;5.72;94.09;102175.97;6090904;23;20015;-85
2022/09/22 03:07:25;;;;;;;15.90;14.30;;;;;;;5.73;94.30;102188.31;6090820;23;20483;-85
2022/09/22 03:09:50;;;;;;;16.58;14.88;;;;;;;5.72;94.51;102175.97;6089883;23;20002;-85
2022/09/22 03:12:16;;;;;;;16.85;15.15;;;;;;;5.73;94.63;102176.88;6089742;23;20002;-85
2022/09/22 03:14:41;;;;;;;15.80;14.10;;;;;;;5.70;94.40;102183.06;6091495;23;20025;-84
2022/09/22 03:17:06;;;;;;;15.85;14.32;;;;;;;5.65;94.61;102170.78;6090470;23;20011;-85
2022/09/22 03:19:32;;;;;;;15.07;13.63;;;;;;;5.68;94.68;102182.19;6090438;23;20002;-85
2022/09/22 03:21:57;;;;;;;15.95;14.50;;;;;;;5.61;94.87;102167.31;6089287;23;20006;-86
2022/09/22 03:24:22;;;;;;;15.88;14.25;;;;;;;5.60;94.91;102173.47;6090455;23;20060;-85
2022/09/22 03:26:47;;;;;;;16.15;14.60;;;;;;;5.56;95.07;102171.75;6091002;23;20011;-85
2022/09/22 03:29:13;;;;;;;16.35;14.70;;;;;;;5.54;94.59;102168.25;6090566;23;20234;-85
2022/09/22 03:31:38;;;;;;;17.00;15.20;;;;;;;5.50;94.11;102170.03;6090414;23;20081;-85
2022/09/22 03:34:04;;;;;;;17.00;15.40;;;;;;;5.46;94.50;102159.50;6089645;23;20309;-85
2022/09/22 03:36:29;;;;;;;16.90;15.18;;;;;;;5.45;94.37;102174.47;6090869;23;20015;-85
2022/09/22 03:38:54;;;;;;;16.23;14.63;;;;;;;5.44;94.72;102169.22;6090338;23;20010;-85
2022/09/22 03:41:20;;;;;;;16.40;14.90;;;;;;;5.43;94.68;102163.06;6089957;23;20013;-85
2022/09/22 03:43:45;;;;;;;16.52;15.02;;;;;;;5.40;94.83;102149.88;6090499;23;20199;-85
2022/09/22 03:46:12;;;;;;;15.95;14.32;;;;;;;5.41;94.57;102156.91;6089417;23;20013;-85
2022/09/22 03:48:38;;;;;;;16.48;14.88;;;;;;;5.33;94.50;102156.09;6090172;23;20385;-85
2022/09/22 03:51:03;;;;;;;16.75;14.90;;;;;;;5.33;94.70;102157.88;6089215;23;20065;-85
2022/09/22 03:53:28;;;;;;;17.10;15.40;;;;;;;5.30;94.54;102156.13;6089304;23;20603;-85
2022/09/22 03:56:11;;;;;;;17.60;15.88;;;;;;;5.27;95.18;102148.25;6090287;23;20006;-85
2022/09/22 03:58:36;;;;;;;17.23;15.63;;;;;;;5.29;95.11;102158.78;6090023;23;20033;-85
2022/09/22 04:01:03;;;;;;;17.95;16.13;;;;;;;5.27;95.37;102155.25;6088663;23;20006;-85
2022/09/22 04:03:29;;;;;;;17.67;16.00;;;;;;;5.24;95.67;102153.53;6063546;23;20010;-85
2022/09/22 04:05:55;;;;;;;19.10;17.30;;;;;;;5.20;95.89;102152.69;6090289;23;20444;-85
2022/09/22 04:08:21;;;;;;;18.02;16.08;;;;;;;5.22;95.77;102153.56;6088938;23;20049;-85
2022/09/22 04:10:46;;;;;;;18.40;16.50;;;;;;;5.15;95.37;102148.34;6064069;23;20066;-85
2022/09/22 04:13:12;;;;;;;17.45;15.82;;;;;;;5.16;95.56;102150.06;6089660;23;20037;-85
2022/09/22 04:15:38;;;;;;;18.20;16.48;;;;;;;5.12;95.33;102148.34;6089853;23;20006;-85
2022/09/22 04:18:03;;;;;;;17.70;15.98;;;;;;;5.09;95.26;102146.59;6089199;23;20006;-85
2022/09/22 04:20:29;;;;;;;16.83;15.25;;;;;;;5.08;94.80;102155.41;6088782;23;20010;-86
2022/09/22 04:22:54;;;;;;;17.80;16.10;;;;;;;4.99;95.95;102139.66;6089086;23;20006;-85
2022/09/22 04:25:20;;;;;;;17.90;16.10;;;;;;;5.03;95.88;102145.78;6092372;23;20094;-85
2022/09/22 04:27:45;;;;;;;17.25;15.60;;;;;;;5.00;95.45;102150.19;6092905;23;20090;-85
2022/09/22 04:30:10;;;;;;;18.05;16.45;;;;;;;4.97;95.52;102144.94;6093663;23;20006;-85
2022/09/22 04:32:36;;;;;;;17.65;16.05;;;;;;;4.92;95.24;102141.44;6065552;23;20014;-85
2022/09/22 04:35:01;;;;;;;18.45;16.80;;;;;;;4.92;95.27;102143.19;6064476;23;20006;-85
2022/09/22 04:37:26;;;;;;;18.05;16.35;;;;;;;4.90;95.41;102140.59;6089830;23;20006;-85
2022/09/22 04:39:53;;;;;;;20.80;18.70;;;;;;;4.88;95.63;102134.44;6089574;23;20554;-85
2022/09/22 04:42:19;;;;;;;19.27;17.35;;;;;;;4.91;95.99;102142.34;6091090;23;20018;-85
2022/09/22 04:44:45;;;;;;;21.05;18.75;;;;;;;4.91;96.54;102141.47;6091965;23;20010;-85
2022/09/22 04:47:11;;;;;;;20.33;18.35;;;;;;;4.90;96.55;102137.94;6111626;23;20002;-85
2022/09/22 04:49:36;;;;;;;20.67;18.48;;;;;;;4.91;96.40;102144.97;6113973;23;20041;-85
2022/09/22 04:52:03;;;;;;;19.77;17.73;;;;;;;4.90;96.39;102142.34;6090854;23;20407;-85
2022/09/22 04:54:28;;;;;;;19.33;17.42;;;;;;;4.82;96.37;102142.41;6090348;23;20445;-85
2022/09/22 04:56:53;;;;;;;18.92;16.98;;;;;;;4.78;96.58;102139.78;6065530;23;20021;-85
2022/09/22 04:59:19;;;;;;;18.70;16.90;;;;;;;4.75;96.55;102136.28;6065265;23;20160;-84
2022/09/22 05:01:44;;;;;;;19.48;17.67;;;;;;;4.71;96.46;102142.44;6091344;23;20010;-85
2022/09/22 05:04:09;;;;;;;19.58;17.40;;;;;;;4.70;96.59;102143.34;6091591;23;20074;-85
2022/09/22 05:06:35;;;;;;;19.23;17.30;;;;;;;4.63;96.65;102138.09;6093261;23;20037;-85
2022/09/22 05:09:01;;;;;;;19.55;17.75;;;;;;;4.65;96.81;102144.25;6069492;23;20002;-85
2022/09/22 05:11:27;;;;;;;20.25;18.13;;;;;;;4.63;96.97;102146.88;6094374;23;20010;-85
2022/09/22 05:13:52;;;;;;;19.63;17.58;;;;;;;4.64;96.56;102147.75;6093821;23;20385;-85
2022/09/22 05:16:17;;;;;;;18.83;16.98;;;;;;;4.61;96.46;102153.94;6092119;23;20040;-85
2022/09/22 05:18:43;;;;;;;19.40;17.45;;;;;;;4.61;96.58;102155.72;6093272;23;20010;-85
2022/09/22 05:21:08;;;;;;;19.02;17.23;;;;;;;4.59;96.47;102154.81;6090550;23;20002;-85
2022/09/22 05:23:35;;;;;;;20.25;18.25;;;;;;;4.56;96.35;102154.88;6090470;23;20038;-84
2022/09/22 05:26:00;;;;;;;21.73;17.23;;;;;;;4.60;96.93;102156.56;6090615;23;20459;-84
2022/09/22 05:28:25;;;;;;;20.80;18.67;;;;;;;4.57;96.96;102143.44;6090965;23;20006;-85
2022/09/22 05:30:51;;;;;;;21.58;17.65;;;;;;;4.61;96.73;102156.59;6090931;23;20006;-85
2022/09/22 05:33:17;;;;;;;20.17;18.15;;;;;;;4.58;96.75;102159.22;6090253;23;20342;-85
2022/09/22 05:35:42;;;;;;;20.50;17.35;;;;;;;4.62;96.50;102160.09;6089772;23;20073;-85
2022/09/22 05:38:08;;;;;;;20.40;18.33;;;;;;;4.64;97.03;102164.50;6092094;23;20010;-85
2022/09/22 05:40:33;;;;;;;20.55;18.40;;;;;;;4.64;96.96;102161.84;6092305;23;20089;-85
2022/09/22 05:42:58;;;;;;;21.15;18.52;;;;;;;4.63;97.35;102151.28;6092010;23;20013;-85
2022/09/22 05:45:24;;;;;;;23.42;19.30;;;;;;;4.68;97.08;102155.69;6091078;23;20006;-85
2022/09/22 05:47:50;;;;;;;20.67;18.48;;;;;;;4.70;97.32;102161.81;6091618;23;20021;-85
2022/09/22 05:50:17;;;;;;;21.70;18.98;;;;;;;4.73;97.23;102164.44;6090789;23;20017;-85
2022/09/22 05:52:42;;;;;;;21.85;19.52;;;;;;;4.74;97.44;102157.41;6089987;23;19998;-86
2022/09/22 05:55:08;;;;;;;22.88;20.45;;;;;;;4.74;97.66;102166.19;6089950;23;20010;-85
2022/09/22 05:57:33;;;;;;;23.08;20.48;;;;;;;4.79;97.77;102162.63;6089467;23;20002;-85
2022/09/22 06:00:00;;;;;;;24.40;21.85;;;;;;;4.79;98.40;102160.00;6063380;23;20180;-85
2022/09/22 06:02:25;;;;;;;24.83;22.15;;;;;;;4.83;98.42;102161.72;6089702;23;20085;-85
2022/09/22 06:04:51;;;;;;;24.15;21.55;;;;;;;4.86;98.58;102165.22;6090112;23;20077;-85
2022/09/22 06:07:21;;;;;;;24.17;21.58;;;;;;;4.92;98.75;102166.94;6089541;23;20029;-85
2022/09/22 06:09:47;;;;;;;24.60;21.70;;;;;;;4.95;98.72;102164.31;6088460;23;20002;-86
2022/09/22 06:12:13;;;;;;;26.67;22.15;;;;;;;4.97;98.96;102165.16;6062856;23;20010;-85
2022/09/22 06:14:38;;;;;;;25.02;22.42;;;;;;;5.02;99.00;102165.13;6089938;23;20002;-85
2022/09/22 06:17:04;;;;;;;24.75;22.00;;;;;;;5.05;99.03;102171.25;6092579;23;20002;-85
2022/09/22 06:19:29;;;;;;;26.55;23.75;;;;;;;5.09;99.12;102166.84;6088429;23;20010;-85
2022/09/22 06:21:55;;;;;;;29.77;24.70;;;;;;;5.13;99.59;102158.00;6088938;23;20107;-85
2022/09/22 06:24:22;;;;;;;33.33;25.48;;;;;;;5.28;100.00;102162.31;6064170;23;20093;-85
2022/09/22 06:26:48;;;;;;;30.10;24.90;;;;;;;5.55;100.00;102171.75;6090074;23;20010;-86
2022/09/22 06:29:14;;;;;;;29.55;24.85;;;;;;;5.86;100.00;102160.03;6086202;23;20011;-85
2022/09/22 06:31:39;;;;;;;27.95;23.27;;;;;;;6.16;99.67;102155.31;6085588;23;20010;-85
2022/09/22 06:34:04;;;;;;;25.40;22.45;;;;;;;6.46;98.38;102162.00;6087120;23;20421;-85
2022/09/22 06:36:30;;;;;;;27.95;22.25;;;;;;;6.78;97.78;102163.34;6063401;23;20013;-84
2022/09/22 06:38:57;;;;;;;26.70;21.00;;;;;;;7.11;95.92;102162.84;6087424;23;20037;-84
2022/09/22 06:41:24;;;;;;;27.25;21.33;;;;;;;7.40;94.93;102166.81;6088872;23;20329;-85
2022/09/22 06:43:51;;;;;;;26.35;20.88;;;;;;;7.69;93.87;102153.03;6091582;23;20003;-85
2022/09/22 06:46:17;;;;;;;24.00;20.38;;;;;;;8.01;92.56;102152.44;6090644;23;20014;-85
2022/09/22 06:48:44;;;;;;;21.23;19.00;;;;;;;8.26;91.27;102150.19;6090271;23;20039;-85
2022/09/22 06:51:09;;;;;;;22.20;19.20;;;;;;;8.53;90.66;102151.44;6091628;23;20013;-85
2022/09/22 06:53:34;;;;;;;19.95;17.40;;;;;;;8.88;89.94;102161.25;6092934;23;20006;-85
2022/09/22 06:56:03;;;;;;;18.85;16.95;;;;;;;9.15;88.44;102151.75;6088716;23;20014;-85
2022/09/22 06:58:28;;;;;;;20.95;17.17;;;;;;;9.40;87.75;102159.13;6090149;23;20022;-85
2022/09/22 07:00:57;;;;;;;19.45;17.48;;;;;;;9.60;86.27;102155.97;6090212;23;20002;-85
2022/09/22 07:03:24;;;;;;;18.02;16.13;;;;;;;9.83;85.06;102150.94;6063751;23;20022;-85
2022/09/22 07:05:56;;;;;;;18.65;16.65;;;;;;;10.13;83.89;102151.00;6089058;23;20015;-85
2022/09/22 07:08:23;;;;;;;22.48;16.20;;;;;;;10.33;82.44;102143.34;6064687;23;20404;-85
2022/09/22 07:10:57;;;;;;;17.48;15.25;;;;;;;10.41;81.99;102152.00;6065110;23;20096;-85
2022/09/22 07:13:23;;;;;;;19.20;15.27;;;;;;;10.20;81.71;102145.47;6089700;23;20032;-85
2022/09/22 07:15:49;;;;;;;16.23;14.48;;;;;;;9.93;82.39;102149.75;6092199;23;20564;-85
2022/09/22 07:18:14;;;;;;;23.17;17.50;;;;;;;9.59;83.34;102143.59;6083900;23;20003;-85
2022/09/22 07:20:40;;;;;;;19.00;16.40;;;;;;;9.33;85.11;102139.81;6112762;23;20015;-86
2022/09/22 07:23:10;;;;;;;19.90;15.82;;;;;;;9.19;85.57;102145.47;6111724;23;20002;-85
2022/09/22 07:25:36;;;;;;;19.15;16.27;;;;;;;9.12;86.69;102143.00;6106951;23;20003;-85
2022/09/22 07:28:04;;;;;;;20.38;15.82;;;;;;;9.39;86.81;102142.31;6089964;23;20097;-85
2022/09/22 07:30:30;;;;;;;19.05;16.00;;;;;;;10.03;85.23;102134.41;6088887;23;20052;-85
2022/09/22 07:32:56;;;;;;;21.90;15.70;;;;;;;10.70;83.78;102147.56;6092044;23;19998;-86
2022/09/22 07:35:22;;;;;;;18.73;14.68;;;;;;;11.38;79.40;102147.16;6101927;23;20014;-85
2022/09/22 07:37:52;;;;;;;16.42;13.95;;;;;;;11.94;78.99;102141.69;6100284;23;20058;-86
2022/09/22 07:40:18;;;;;;;15.60;13.50;;;;;;;12.53;76.69;102140.38;6109096;23;20010;-86
2022/09/22 07:42:47;;;;;;;19.85;12.73;;;;;;;13.09;74.43;102136.41;6111108;23;20030;-86
2022/09/22 07:45:13;;;;;;;13.80;10.77;;;;;;;13.57;71.68;102136.19;6113577;23;20014;-85
2022/09/22 07:50:25;;;;;;;18.67;15.23;;;;;;;14.45;68.17;102139.38;6097969;23;20199;-86
2022/09/22 07:52:51;;;;;;;13.80;10.85;;;;;;;14.94;65.55;102134.41;6093701;23;20003;-85
2022/09/22 07:55:18;;;;;;;12.98;10.60;;;;;;;15.30;63.37;102138.00;6094044;23;20007;-85
2022/09/22 07:57:45;;;;;;;12.45;11.15;;;;;;;15.63;63.29;102127.38;6094659;23;20002;-85
2022/09/22 08:00:11;;;;;;;11.68;9.55;;;;;;;16.04;61.82;102132.44;6093426;23;20444;-85
2022/09/22 08:02:36;;;;;;;11.15;9.48;;;;;;;16.44;60.42;102133.84;6093487;23;20006;-86
2022/09/22 08:05:03;;;;;;;11.35;9.13;;;;;;;16.93;57.19;102129.31;6092378;23;20014;-85
2022/09/22 08:07:35;;;;;;;12.50;9.38;;;;;;;17.36;55.59;102128.63;6090076;23;20488;-85
2022/09/22 08:10:00;;;;;;;10.48;9.30;;;;;;;17.86;55.65;102131.00;6091626;23;20073;-85
2022/09/22 08:12:25;;;;;;;12.00;9.57;;;;;;;18.13;54.69;102125.72;6091174;23;20045;-85
2022/09/22 08:14:52;;;;;;;10.40;9.32;;;;;;;18.54;52.34;102130.34;6090654;23;20148;-85
2022/09/22 08:17:18;;;;;;;10.50;8.77;;;;;;;18.90;51.74;102134.34;6088234;23;20053;-85
2022/09/22 08:19:43;;;;;;;10.07;8.98;;;;;;;19.33;49.13;102129.66;6089279;23;20006;-86
2022/09/22 08:22:09;;;;;;;9.32;8.32;;;;;;;19.62;48.97;102127.72;6089244;23;20010;-85
2022/09/22 08:24:35;;;;;;;10.10;8.57;;;;;;;19.90;48.30;102115.88;6090925;23;20425;-84
2022/09/22 08:27:00;;;;;;;9.48;8.50;;;;;;;20.31;47.79;102124.69;6090268;23;20036;-85
2022/09/22 08:29:26;;;;;;;8.98;7.97;;;;;;;20.55;46.77;102116.69;6088634;23;20676;-85
2022/09/22 08:31:52;;;;;;;9.27;8.30;;;;;;;20.81;46.46;102120.19;6089460;23;20006;-85
2022/09/22 08:34:19;;;;;;;9.30;8.38;;;;;;;21.14;45.21;102111.38;6087948;23;20049;-85
2022/09/22 08:36:45;;;;;;;9.95;8.65;;;;;;;21.58;45.36;102118.84;6062709;23;20010;-85
2022/09/22 08:39:11;;;;;;;9.20;8.23;;;;;;;21.84;43.29;102122.25;6088518;23;20310;-85
2022/09/22 08:42:07;;;;;;;9.27;7.80;;;;;;;22.19;43.54;102117.75;6088765;23;20017;-85
2022/09/22 08:44:58;;;;;;;10.48;7.97;;;;;;;22.75;43.96;102123.16;6046013;23;20018;-84
2022/09/22 08:53:22;;;;;;;7.82;7.00;;;;;;;24.07;40.37;102127.28;6088731;23;20057;-85
2022/09/22 08:55:54;;;;;;;8.73;6.75;;;;;;;24.47;38.84;102123.78;6088953;23;20037;-86
2022/09/22 08:58:41;;;;;;;7.80;7.05;;;;;;;24.91;40.50;102131.63;6086618;23;20076;-83
2022/09/22 09:01:37;;;;;;;9.43;7.15;;;;;;;25.26;39.88;102121.13;6088300;23;20069;-84
2022/09/22 09:04:41;;;;;;;7.82;6.95;;;;;;;25.73;39.18;102126.66;6088432;23;20082;-83
2022/09/22 09:07:42;;;;;;;7.35;6.65;;;;;;;26.14;38.19;102132.78;6086249;23;20045;-83
2022/09/22 09:10:38;;;;;;;7.35;6.63;;;;;;;26.62;37.63;102134.47;6086695;23;20002;-82
2022/09/22 09:13:22;;;;;;;7.25;6.32;;;;;;;26.92;36.39;102144.22;6087125;23;20081;-85
2022/09/22 09:16:03;;;;;;;7.70;6.38;;;;;;;26.91;32.57;102141.63;6089026;23;20010;-85
2022/09/22 09:18:35;;;;;;;13.45;7.57;;;;;;;27.15;33.16;102127.41;6087475;23;20038;-84
2022/09/22 09:21:06;;;;;;;14.98;7.05;;;;;;;27.54;31.81;102138.88;6090688;23;20006;-87
2022/09/22 09:23:40;;;;;;;10.07;6.57;;;;;;;28.11;32.20;102131.13;6064996;23;20007;-84
2022/09/22 09:26:05;;;;;;;7.70;6.43;;;;;;;28.38;29.97;102126.47;6088617;23;20040;-86
2022/09/22 09:28:41;;;;;;;10.82;7.10;;;;;;;28.68;31.68;102120.47;6088954;23;20088;-85
2022/09/22 09:31:17;;;;;;;45.42;9.07;;;;;;;29.12;31.77;102114.75;6087733;23;20060;-83
2022/09/22 09:34:03;;;;;;;15.63;6.93;;;;;;;29.63;31.65;102131.97;6089600;23;20006;-84
2022/09/22 09:36:31;;;;;;;7.47;6.00;;;;;;;29.83;28.14;102124.22;6089820;23;20444;-87
2022/09/22 09:38:59;;;;;;;6.55;5.95;;;;;;;29.97;27.86;102122.66;6089765;23;20010;-83
2022/09/22 09:41:32;;;;;;;12.02;6.43;;;;;;;30.25;28.24;102123.97;6089660;23;20013;-83
2022/09/22 09:44:00;;;;;;;5.82;5.32;;;;;;;30.73;26.83;102127.59;6090170;23;20006;-84
2022/09/22 09:47:00;;;;;;;6.78;5.85;;;;;;;31.24;29.03;102119.72;6090174;23;20006;-84
2022/09/22 09:49:26;;;;;;;7.60;5.22;;;;;;;31.49;25.77;102125.91;6014366;23;20014;-84
2022/09/22 09:51:56;;;;;;;9.30;5.50;;;;;;;31.64;25.33;102128.69;6091817;23;20408;-84
2022/09/22 09:54:22;;;;;;;7.43;5.30;;;;;;;31.69;24.90;102134.50;6101475;23;20057;-84
2022/09/22 09:57:05;;;;;;;8.60;5.70;;;;;;;31.88;27.26;102126.78;6099091;23;20321;-82
2022/09/22 10:02:20;;;;;;;5.80;4.70;;;;;;;32.11;24.34;102105.53;6095780;23;20077;-84
2022/09/22 10:04:58;;;;;;;53.45;7.63;;;;;;;32.28;24.26;102108.94;6065502;23;20006;-83
2022/09/22 10:07:27;;;;;;;5.80;4.07;;;;;;;32.53;24.51;102103.16;6090271;23;20009;-82
2022/09/22 10:09:54;;;;;;;3.95;3.58;;;;;;;32.76;22.91;102106.59;6090768;23;20006;-84
2022/09/22 10:12:28;;;;;;;6.32;4.20;;;;;;;33.32;23.69;102094.91;6089662;23;20010;-83
2022/09/22 10:14:57;;;;;;;4.50;3.50;;;;;;;33.18;21.15;102102.22;6091404;23;20010;-84
2022/09/22 10:17:32;;;;;;;5.38;3.50;;;;;;;33.35;22.27;102095.38;6091915;23;20006;-84
2022/09/22 10:20:20;;;;;;;4.72;3.53;;;;;;;33.57;23.25;102101.75;6093008;23;20006;-87
2022/09/22 10:22:45;;;;;;;3.50;3.20;;;;;;;33.43;21.78;102094.38;6103417;23;20014;-85
2022/09/22 10:25:37;;;;;;;3.67;2.95;;;;;;;34.39;23.12;102100.19;6079327;23;20016;-86
2022/09/22 10:28:14;;;;;;;3.72;3.10;;;;;;;34.37;21.32;102094.88;6093834;23;20014;-85
2022/09/22 10:30:41;;;;;;;6.22;2.90;;;;;;;34.54;18.68;102089.88;6100792;23;20006;-87
2022/09/22 10:33:10;;;;;;;3.63;2.47;;;;;;;34.55;20.81;102091.56;6102507;23;20036;-85
2022/09/22 10:35:35;;;;;;;5.43;1.77;;;;;;;34.90;18.04;102092.28;6098174;23;20006;-84
2022/09/22 10:38:23;;;;;;;1.80;1.42;;;;;;;35.38;20.34;102078.34;6093185;23;20010;-85
2022/09/22 10:41:06;;;;;;;2.05;1.35;;;;;;;35.19;18.66;102074.50;6092618;23;20010;-84
2022/09/22 10:43:44;;;;;;;2.28;1.30;;;;;;;35.41;18.52;102069.63;6066709;23;20511;-84
2022/09/22 10:46:22;;;;;;;1.98;1.17;;;;;;;35.69;18.91;102079.63;6064036;23;20319;-84
2022/09/22 10:49:28;;;;;;;2.58;1.48;;;;;;;36.21;19.55;102075.06;6092190;23;20010;-84
2022/09/22 10:52:13;;;;;;;3.22;1.40;;;;;;;35.17;19.96;102082.16;6050444;23;20093;-84
2022/09/22 10:54:43;;;;;;;3.70;1.50;;;;;;;32.37;21.21;102076.63;6090474;23;20003;-85
2022/09/22 10:57:24;;;;;;;3.05;1.80;;;;;;;33.13;21.08;102075.22;6091130;23;20455;-85
2022/09/22 11:00:03;;;;;;;2.05;1.85;;;;;;;33.83;19.46;102072.63;6090754;23;20014;-85
2022/09/22 11:02:59;;;;;;;2.53;1.70;;;;;;;34.93;19.29;102077.19;6090892;23;20085;-85
2022/09/22 11:14:00;;;;;;;5.05;2.40;;;;;;;29.32;24.16;102065.09;6090931;23;20393;-84
2022/09/22 11:16:44;;;;;;;3.40;1.90;;;;;;;31.92;23.23;102053.78;6089721;23;20025;-84
2022/09/22 11:19:54;;;;;;;2.92;2.42;;;;;;;32.12;22.91;102054.91;6090585;23;20020;-85
2022/09/22 11:22:35;;;;;;;2.92;2.17;;;;;;;31.53;22.02;102052.09;6090134;23;20094;-85
2022/09/22 11:25:25;;;;;;;4.22;3.60;;;;;;;29.47;25.01;102057.88;6090404;23;20081;-84
2022/09/22 11:28:06;;;;;;;2.88;1.98;;;;;;;27.83;26.56;102055.69;6063077;23;20687;-85
2022/09/22 11:30:51;;;;;;;6.22;2.20;;;;;;;29.77;25.12;102046.22;6089867;23;20018;-84
2022/09/22 11:33:30;;;;;;;2.95;2.25;;;;;;;30.96;21.92;102050.66;6064588;23;20006;-86
2022/09/22 11:35:59;;;;;;;3.03;2.15;;;;;;;31.90;20.53;102039.34;6064278;23;20093;-85
2022/09/22 11:38:36;;;;;;;3.88;2.22;;;;;;;33.16;21.16;102040.88;6089361;23;20006;-86
2022/09/22 11:41:28;;;;;;;2.72;2.20;;;;;;;35.08;19.40;102036.41;6090623;23;20022;-85
2022/09/22 11:44:22;;;;;;;6.25;2.30;;;;;;;36.03;18.05;102036.94;6089080;23;20006;-86
2022/09/22 11:47:16;;;;;;;3.90;2.08;;;;;;;37.06;17.07;102031.31;6090340;23;20034;-86
2022/09/22 11:50:10;;;;;;;2.78;1.90;;;;;;;37.31;16.57;102022.16;6089228;23;20003;-87
2022/09/22 11:52:50;;;;;;;3.72;1.65;;;;;;;37.02;16.42;102026.44;6089220;23;20006;-86
2022/09/22 11:55:39;;;;;;;2.22;1.20;;;;;;;37.78;16.48;102022.56;6088052;23;20014;-86